Terminal Aerodrome Forecast
Issued by NWS

Home | Current Version | Previous Version | Text Only | Print | Product List | Glossary On
Versions: 1 2 3 4 5 6 7 8 9 10 11 12 13 14 15 16 17 18 19 20 21 22 23 24 25 26 27 28 29 30 31 32 33 34 35 36
000
FTUS45 KBOI 090009 AAA
TAFTWF
TAF AMD
KTWF 090009Z 0900/0924 07013KT 1SM -SN BKN009 OVC020
      TEMPO 0900/0902 1/2SM SN VV008
     FM090500 06006KT P6SM VCSH OVC025
     FM090800 07006KT P6SM SCT025 OVC050
     FM091500 18007KT 4SM -SHRA OVC025=

USA.gov is the U.S. government's official web portal to all federal, state and local government web resources and services.